sensor_id;sensor_type;location;lat;lon;timestamp;temperature;humidity
2825;DHT22;1420;51.324;12.344;2022-08-01T00:00:47;20.10;99.90
2825;DHT22;1420;51.324;12.344;2022-08-01T00:03:14;20.10;99.90
2825;DHT22;1420;51.324;12.344;2022-08-01T00:05:41;20.20;99.90
2825;DHT22;1420;51.324;12.344;2022-08-01T00:08:09;20.50;99.90
2825;DHT22;1420;51.324;12.344;2022-08-01T00:10:37;20.50;99.90
2825;DHT22;1420;51.324;12.344;2022-08-01T00:13:05;20.40;99.90
2825;DHT22;1420;51.324;12.344;2022-08-01T00:15:33;20.60;99.90
2825;DHT22;1420;51.324;12.344;2022-08-01T00:18:01;20.50;99.90
2825;DHT22;1420;51.324;12.344;2022-08-01T00:20:28;20.50;99.90
2825;DHT22;1420;51.324;12.344;2022-08-01T00:22:55;20.40;99.90
2825;DHT22;1420;51.324;12.344;2022-08-01T00:25:22;20.60;99.90
2825;DHT22;1420;51.324;12.344;2022-08-01T00:27:49;20.70;99.90
2825;DHT22;1420;51.324;12.344;2022-08-01T00:30:17;20.60;99.90
2825;DHT22;1420;51.324;12.344;2022-08-01T00:32:44;20.60;99.90
2825;DHT22;1420;51.324;12.344;2022-08-01T00:35:12;20.80;99.90
2825;DHT22;1420;51.324;12.344;2022-08-01T00:37:40;20.80;99.90
2825;DHT22;1420;51.324;12.344;2022-08-01T00:40:08;20.90;99.90
2825;DHT22;1420;51.324;12.344;2022-08-01T00:42:35;20.90;99.90
2825;DHT22;1420;51.324;12.344;2022-08-01T00:45:02;21.10;99.90
2825;DHT22;1420;51.324;12.344;2022-08-01T00:47:30;20.90;99.90
2825;DHT22;1420;51.324;12.344;2022-08-01T00:49:57;20.60;99.90
2825;DHT22;1420;51.324;12.344;2022-08-01T00:52:24;20.70;99.90
2825;DHT22;1420;51.324;12.344;2022-08-01T00:54:52;20.60;99.90
2825;DHT22;1420;51.324;12.344;2022-08-01T00:57:20;20.50;99.90
2825;DHT22;1420;51.324;12.344;2022-08-01T00:59:48;20.60;99.90
2825;DHT22;1420;51.324;12.344;2022-08-01T01:02:16;20.30;99.90
2825;DHT22;1420;51.324;12.344;2022-08-01T01:04:44;20.20;99.90
2825;DHT22;1420;51.324;12.344;2022-08-01T01:07:19;20.10;99.90
2825;DHT22;1420;51.324;12.344;2022-08-01T01:09:47;20.10;99.90
2825;DHT22;1420;51.324;12.344;2022-08-01T01:12:24;20.20;99.90
2825;DHT22;1420;51.324;12.344;2022-08-01T01:15:10;20.40;99.90
2825;DHT22;1420;51.324;12.344;2022-08-01T01:17:45;20.40;99.90
2825;DHT22;1420;51.324;12.344;2022-08-01T01:20:10;20.20;99.90
2825;DHT22;1420;51.324;12.344;2022-08-01T01:22:57;20.40;99.90
2825;DHT22;1420;51.324;12.344;2022-08-01T01:25:41;20.50;99.90
2825;DHT22;1420;51.324;12.344;2022-08-01T01:28:29;20.40;99.90
2825;DHT22;1420;51.324;12.344;2022-08-01T01:30:55;20.40;99.90
2825;DHT22;1420;51.324;12.344;2022-08-01T01:33:21;20.20;99.90
2825;DHT22;1420;51.324;12.344;2022-08-01T01:35:52;20.20;99.90
2825;DHT22;1420;51.324;12.344;2022-08-01T01:38:22;20.40;99.90
2825;DHT22;1420;51.324;12.344;2022-08-01T01:40:50;20.60;99.90
2825;DHT22;1420;51.324;12.344;2022-08-01T01:43:17;20.50;99.90
2825;DHT22;1420;51.324;12.344;2022-08-01T01:45:45;20.40;99.90
2825;DHT22;1420;51.324;12.344;2022-08-01T01:48:13;20.50;99.90
2825;DHT22;1420;51.324;12.344;2022-08-01T01:50:42;20.50;99.90
2825;DHT22;1420;51.324;12.344;2022-08-01T01:53:08;20.50;99.90
2825;DHT22;1420;51.324;12.344;2022-08-01T01:55:36;20.50;99.90
2825;DHT22;1420;51.324;12.344;2022-08-01T01:58:03;20.60;99.90
2825;DHT22;1420;51.324;12.344;2022-08-01T02:00:31;20.50;99.90
2825;DHT22;1420;51.324;12.344;2022-08-01T02:03:00;20.50;99.90
2825;DHT22;1420;51.324;12.344;2022-08-01T02:05:27;20.60;99.90
2825;DHT22;1420;51.324;12.344;2022-08-01T02:07:55;20.50;99.90
2825;DHT22;1420;51.324;12.344;2022-08-01T02:10:23;20.70;99.90
2825;DHT22;1420;51.324;12.344;2022-08-01T02:12:51;20.50;99.90
2825;DHT22;1420;51.324;12.344;2022-08-01T02:15:19;20.60;99.90
2825;DHT22;1420;51.324;12.344;2022-08-01T02:17:48;20.70;99.90
2825;DHT22;1420;51.324;12.344;2022-08-01T02:20:15;20.50;99.90
2825;DHT22;1420;51.324;12.344;2022-08-01T02:22:46;20.40;99.90
2825;DHT22;1420;51.324;12.344;2022-08-01T02:25:15;20.40;99.90
2825;DHT22;1420;51.324;12.344;2022-08-01T02:28:03;20.40;99.90
2825;DHT22;1420;51.324;12.344;2022-08-01T02:30:26;20.40;99.90
2825;DHT22;1420;51.324;12.344;2022-08-01T02:32:58;20.30;99.90
2825;DHT22;1420;51.324;12.344;2022-08-01T02:35:24;20.40;99.90
2825;DHT22;1420;51.324;12.344;2022-08-01T02:37:50;20.30;99.90
2825;DHT22;1420;51.324;12.344;2022-08-01T02:40:17;20.30;99.90
2825;DHT22;1420;51.324;12.344;2022-08-01T02:42:45;20.20;99.90
2825;DHT22;1420;51.324;12.344;2022-08-01T02:45:12;20.20;99.90
2825;DHT22;1420;51.324;12.344;2022-08-01T02:47:39;20.20;99.90
2825;DHT22;1420;51.324;12.344;2022-08-01T02:50:07;20.20;99.90
2825;DHT22;1420;51.324;12.344;2022-08-01T02:52:34;20.30;99.90
2825;DHT22;1420;51.324;12.344;2022-08-01T02:55:02;20.30;99.90
2825;DHT22;1420;51.324;12.344;2022-08-01T02:57:29;20.30;99.90
2825;DHT22;1420;51.324;12.344;2022-08-01T02:59:56;20.20;99.90
2825;DHT22;1420;51.324;12.344;2022-08-01T03:02:23;20.10;99.90
2825;DHT22;1420;51.324;12.344;2022-08-01T03:04:50;20.10;99.90
2825;DHT22;1420;51.324;12.344;2022-08-01T03:07:18;20.20;99.90
2825;DHT22;1420;51.324;12.344;2022-08-01T03:09:45;20.30;99.90
2825;DHT22;1420;51.324;12.344;2022-08-01T03:12:14;20.30;99.90
2825;DHT22;1420;51.324;12.344;2022-08-01T03:14:40;20.20;99.90
2825;DHT22;1420;51.324;12.344;2022-08-01T03:17:08;20.20;99.90
2825;DHT22;1420;51.324;12.344;2022-08-01T03:19:35;20.20;99.90
2825;DHT22;1420;51.324;12.344;2022-08-01T03:22:02;20.20;99.90
2825;DHT22;1420;51.324;12.344;2022-08-01T03:24:29;20.30;99.90
2825;DHT22;1420;51.324;12.344;2022-08-01T03:26:57;20.30;99.90
2825;DHT22;1420;51.324;12.344;2022-08-01T03:29:25;20.10;99.90
2825;DHT22;1420;51.324;12.344;2022-08-01T03:31:51;20.00;99.90
2825;DHT22;1420;51.324;12.344;2022-08-01T03:34:18;20.10;99.90
2825;DHT22;1420;51.324;12.344;2022-08-01T03:36:48;20.20;99.90
2825;DHT22;1420;51.324;12.344;2022-08-01T03:39:14;20.10;99.90
2825;DHT22;1420;51.324;12.344;2022-08-01T03:41:41;20.20;99.90
2825;DHT22;1420;51.324;12.344;2022-08-01T03:44:10;20.10;99.90
2825;DHT22;1420;51.324;12.344;2022-08-01T03:46:47;20.00;99.90
2825;DHT22;1420;51.324;12.344;2022-08-01T03:49:17;20.00;99.90
2825;DHT22;1420;51.324;12.344;2022-08-01T03:51:41;20.10;99.90
2825;DHT22;1420;51.324;12.344;2022-08-01T03:54:08;20.20;99.90
2825;DHT22;1420;51.324;12.344;2022-08-01T03:56:35;20.10;99.90
2825;DHT22;1420;51.324;12.344;2022-08-01T03:59:03;20.20;99.90
2825;DHT22;1420;51.324;12.344;2022-08-01T04:01:30;20.30;99.90
2825;DHT22;1420;51.324;12.344;2022-08-01T04:03:59;20.20;99.90
2825;DHT22;1420;51.324;12.344;2022-08-01T04:06:25;20.10;99.90
2825;DHT22;1420;51.324;12.344;2022-08-01T04:08:52;20.00;99.90
2825;DHT22;1420;51.324;12.344;2022-08-01T04:11:24;19.90;1.00
2825;DHT22;1420;51.324;12.344;2022-08-01T04:13:51;20.00;99.90
2825;DHT22;1420;51.324;12.344;2022-08-01T04:16:18;19.90;1.00
2825;DHT22;1420;51.324;12.344;2022-08-01T04:18:45;19.90;99.90
2825;DHT22;1420;51.324;12.344;2022-08-01T04:21:12;20.00;99.90
2825;DHT22;1420;51.324;12.344;2022-08-01T04:23:41;20.00;99.90
2825;DHT22;1420;51.324;12.344;2022-08-01T04:26:07;20.00;99.90
2825;DHT22;1420;51.324;12.344;2022-08-01T04:28:34;20.00;99.90
2825;DHT22;1420;51.324;12.344;2022-08-01T04:31:01;20.00;99.90
2825;DHT22;1420;51.324;12.344;2022-08-01T04:33:29;20.00;99.90
2825;DHT22;1420;51.324;12.344;2022-08-01T04:35:58;20.00;99.90
2825;DHT22;1420;51.324;12.344;2022-08-01T04:38:25;20.00;99.90
2825;DHT22;1420;51.324;12.344;2022-08-01T04:40:51;20.00;99.90
2825;DHT22;1420;51.324;12.344;2022-08-01T04:43:19;20.20;99.90
2825;DHT22;1420;51.324;12.344;2022-08-01T04:45:46;20.20;99.90
2825;DHT22;1420;51.324;12.344;2022-08-01T04:48:13;20.20;99.90
2825;DHT22;1420;51.324;12.344;2022-08-01T04:50:41;20.20;99.90
2825;DHT22;1420;51.324;12.344;2022-08-01T04:53:14;20.10;99.90
2825;DHT22;1420;51.324;12.344;2022-08-01T04:55:40;20.00;99.90
2825;DHT22;1420;51.324;12.344;2022-08-01T04:58:08;20.00;99.90
2825;DHT22;1420;51.324;12.344;2022-08-01T05:00:35;19.90;99.90
2825;DHT22;1420;51.324;12.344;2022-08-01T05:03:03;19.90;99.90
2825;DHT22;1420;51.324;12.344;2022-08-01T05:05:31;19.90;99.90
2825;DHT22;1420;51.324;12.344;2022-08-01T05:07:59;20.00;99.90
2825;DHT22;1420;51.324;12.344;2022-08-01T05:10:26;19.90;99.90
2825;DHT22;1420;51.324;12.344;2022-08-01T05:12:53;19.90;99.90
2825;DHT22;1420;51.324;12.344;2022-08-01T05:15:20;20.10;99.90
2825;DHT22;1420;51.324;12.344;2022-08-01T05:17:48;20.20;99.90
2825;DHT22;1420;51.324;12.344;2022-08-01T05:20:15;20.20;99.90
2825;DHT22;1420;51.324;12.344;2022-08-01T05:22:43;20.20;99.90
2825;DHT22;1420;51.324;12.344;2022-08-01T05:25:10;20.20;99.90
2825;DHT22;1420;51.324;12.344;2022-08-01T05:27:37;20.20;99.90
2825;DHT22;1420;51.324;12.344;2022-08-01T05:30:07;20.10;1.00
2825;DHT22;1420;51.324;12.344;2022-08-01T05:32:34;20.10;1.00
2825;DHT22;1420;51.324;12.344;2022-08-01T05:35:01;20.00;1.00
2825;DHT22;1420;51.324;12.344;2022-08-01T05:37:28;20.10;1.00
2825;DHT22;1420;51.324;12.344;2022-08-01T05:39:55;20.20;1.00
2825;DHT22;1420;51.324;12.344;2022-08-01T05:42:22;20.30;99.90
2825;DHT22;1420;51.324;12.344;2022-08-01T05:44:50;20.50;99.90
2825;DHT22;1420;51.324;12.344;2022-08-01T05:47:17;20.70;99.90
2825;DHT22;1420;51.324;12.344;2022-08-01T05:49:44;20.90;99.90
2825;DHT22;1420;51.324;12.344;2022-08-01T05:52:11;21.00;99.90
2825;DHT22;1420;51.324;12.344;2022-08-01T05:54:39;21.60;99.90
2825;DHT22;1420;51.324;12.344;2022-08-01T05:57:07;21.60;99.90
2825;DHT22;1420;51.324;12.344;2022-08-01T05:59:35;21.70;99.90
2825;DHT22;1420;51.324;12.344;2022-08-01T06:02:03;22.00;99.90
2825;DHT22;1420;51.324;12.344;2022-08-01T06:04:31;22.00;99.90
2825;DHT22;1420;51.324;12.344;2022-08-01T06:06:59;21.70;99.90
2825;DHT22;1420;51.324;12.344;2022-08-01T06:09:27;21.70;99.90
2825;DHT22;1420;51.324;12.344;2022-08-01T06:11:55;21.60;99.90
2825;DHT22;1420;51.324;12.344;2022-08-01T06:14:23;21.50;99.90
2825;DHT22;1420;51.324;12.344;2022-08-01T06:16:51;21.40;99.90
2825;DHT22;1420;51.324;12.344;2022-08-01T06:19:19;21.20;99.90
2825;DHT22;1420;51.324;12.344;2022-08-01T06:21:47;21.30;99.90
2825;DHT22;1420;51.324;12.344;2022-08-01T06:24:15;21.60;99.90
2825;DHT22;1420;51.324;12.344;2022-08-01T06:26:43;21.50;99.90
2825;DHT22;1420;51.324;12.344;2022-08-01T06:29:11;21.80;99.90
2825;DHT22;1420;51.324;12.344;2022-08-01T06:31:39;21.80;99.90
2825;DHT22;1420;51.324;12.344;2022-08-01T06:34:07;21.80;99.90
2825;DHT22;1420;51.324;12.344;2022-08-01T06:36:35;21.70;99.90
2825;DHT22;1420;51.324;12.344;2022-08-01T06:39:03;21.70;99.90
2825;DHT22;1420;51.324;12.344;2022-08-01T06:41:31;21.50;99.90
2825;DHT22;1420;51.324;12.344;2022-08-01T06:43:59;21.70;99.90
2825;DHT22;1420;51.324;12.344;2022-08-01T06:46:27;21.80;99.90
2825;DHT22;1420;51.324;12.344;2022-08-01T06:48:55;22.00;99.90
2825;DHT22;1420;51.324;12.344;2022-08-01T06:51:22;21.90;99.90
2825;DHT22;1420;51.324;12.344;2022-08-01T06:53:49;22.20;99.90
2825;DHT22;1420;51.324;12.344;2022-08-01T06:56:16;22.20;99.90
2825;DHT22;1420;51.324;12.344;2022-08-01T06:58:43;22.20;99.90
2825;DHT22;1420;51.324;12.344;2022-08-01T07:01:11;22.30;99.90
2825;DHT22;1420;51.324;12.344;2022-08-01T07:03:38;22.60;99.90
2825;DHT22;1420;51.324;12.344;2022-08-01T07:06:06;22.30;99.90
2825;DHT22;1420;51.324;12.344;2022-08-01T07:08:34;22.50;99.90
2825;DHT22;1420;51.324;12.344;2022-08-01T07:11:02;23.50;99.90
2825;DHT22;1420;51.324;12.344;2022-08-01T07:13:29;23.50;99.90
2825;DHT22;1420;51.324;12.344;2022-08-01T07:15:56;24.00;99.90
2825;DHT22;1420;51.324;12.344;2022-08-01T07:18:24;24.10;99.90
2825;DHT22;1420;51.324;12.344;2022-08-01T07:20:52;24.00;99.90
2825;DHT22;1420;51.324;12.344;2022-08-01T07:23:20;23.80;99.90
2825;DHT22;1420;51.324;12.344;2022-08-01T07:25:48;23.60;99.90
2825;DHT22;1420;51.324;12.344;2022-08-01T07:28:16;23.60;99.90
2825;DHT22;1420;51.324;12.344;2022-08-01T07:30:43;24.10;99.90
2825;DHT22;1420;51.324;12.344;2022-08-01T07:33:11;24.50;99.90
2825;DHT22;1420;51.324;12.344;2022-08-01T07:35:38;24.80;99.90
2825;DHT22;1420;51.324;12.344;2022-08-01T07:38:06;24.10;99.90
2825;DHT22;1420;51.324;12.344;2022-08-01T07:40:33;23.80;99.90
2825;DHT22;1420;51.324;12.344;2022-08-01T07:43:00;24.00;99.90
2825;DHT22;1420;51.324;12.344;2022-08-01T07:45:28;24.00;99.90
2825;DHT22;1420;51.324;12.344;2022-08-01T07:47:55;23.50;99.90
2825;DHT22;1420;51.324;12.344;2022-08-01T07:50:23;23.50;99.90
2825;DHT22;1420;51.324;12.344;2022-08-01T07:52:50;23.30;99.90
2825;DHT22;1420;51.324;12.344;2022-08-01T07:55:17;22.50;99.90
2825;DHT22;1420;51.324;12.344;2022-08-01T07:57:44;21.80;99.90
2825;DHT22;1420;51.324;12.344;2022-08-01T08:00:12;21.60;99.90
2825;DHT22;1420;51.324;12.344;2022-08-01T08:02:39;21.50;99.90
2825;DHT22;1420;51.324;12.344;2022-08-01T08:05:07;21.40;99.90
2825;DHT22;1420;51.324;12.344;2022-08-01T08:07:35;21.70;99.90
2825;DHT22;1420;51.324;12.344;2022-08-01T08:10:04;21.40;99.90
2825;DHT22;1420;51.324;12.344;2022-08-01T08:12:30;21.40;99.90
2825;DHT22;1420;51.324;12.344;2022-08-01T08:14:57;21.50;99.90
2825;DHT22;1420;51.324;12.344;2022-08-01T08:17:26;21.60;99.90
2825;DHT22;1420;51.324;12.344;2022-08-01T08:19:54;21.90;99.90
2825;DHT22;1420;51.324;12.344;2022-08-01T08:22:22;22.10;99.90
2825;DHT22;1420;51.324;12.344;2022-08-01T08:24:50;22.50;99.90
2825;DHT22;1420;51.324;12.344;2022-08-01T08:27:18;22.70;99.90
2825;DHT22;1420;51.324;12.344;2022-08-01T08:29:46;22.60;99.90
2825;DHT22;1420;51.324;12.344;2022-08-01T08:32:14;22.60;99.90
2825;DHT22;1420;51.324;12.344;2022-08-01T08:34:42;22.70;99.90
2825;DHT22;1420;51.324;12.344;2022-08-01T08:37:09;22.70;99.90
2825;DHT22;1420;51.324;12.344;2022-08-01T08:39:36;22.90;99.90
2825;DHT22;1420;51.324;12.344;2022-08-01T08:42:06;23.00;99.90
2825;DHT22;1420;51.324;12.344;2022-08-01T08:44:32;23.00;99.90
2825;DHT22;1420;51.324;12.344;2022-08-01T08:47:01;22.80;99.90
2825;DHT22;1420;51.324;12.344;2022-08-01T08:49:29;22.80;99.90
2825;DHT22;1420;51.324;12.344;2022-08-01T08:51:58;23.60;99.90
2825;DHT22;1420;51.324;12.344;2022-08-01T08:54:25;24.20;99.90
2825;DHT22;1420;51.324;12.344;2022-08-01T08:56:53;24.20;99.90
2825;DHT22;1420;51.324;12.344;2022-08-01T08:59:20;24.30;99.90
2825;DHT22;1420;51.324;12.344;2022-08-01T09:01:47;23.80;99.90
2825;DHT22;1420;51.324;12.344;2022-08-01T09:04:14;24.00;99.90
2825;DHT22;1420;51.324;12.344;2022-08-01T09:06:41;24.30;99.90
2825;DHT22;1420;51.324;12.344;2022-08-01T09:09:09;24.40;99.90
2825;DHT22;1420;51.324;12.344;2022-08-01T09:11:36;24.20;99.90
2825;DHT22;1420;51.324;12.344;2022-08-01T09:14:12;24.10;99.90
2825;DHT22;1420;51.324;12.344;2022-08-01T09:16:42;24.10;99.90
2825;DHT22;1420;51.324;12.344;2022-08-01T09:19:15;24.00;99.90
2825;DHT22;1420;51.324;12.344;2022-08-01T09:21:57;23.60;99.90
2825;DHT22;1420;51.324;12.344;2022-08-01T09:24:24;23.70;99.90
2825;DHT22;1420;51.324;12.344;2022-08-01T09:26:51;23.70;99.90
2825;DHT22;1420;51.324;12.344;2022-08-01T09:29:20;24.60;99.90
2825;DHT22;1420;51.324;12.344;2022-08-01T09:31:45;24.40;99.90
2825;DHT22;1420;51.324;12.344;2022-08-01T09:34:13;24.50;99.90
2825;DHT22;1420;51.324;12.344;2022-08-01T09:36:46;24.40;99.90
2825;DHT22;1420;51.324;12.344;2022-08-01T09:39:13;24.10;99.90
2825;DHT22;1420;51.324;12.344;2022-08-01T09:41:41;24.00;99.90
2825;DHT22;1420;51.324;12.344;2022-08-01T09:44:09;24.00;99.90
2825;DHT22;1420;51.324;12.344;2022-08-01T09:46:47;24.00;99.90
2825;DHT22;1420;51.324;12.344;2022-08-01T09:49:05;24.10;99.90
2825;DHT22;1420;51.324;12.344;2022-08-01T09:51:36;24.20;99.90
2825;DHT22;1420;51.324;12.344;2022-08-01T09:54:03;24.20;99.90
2825;DHT22;1420;51.324;12.344;2022-08-01T09:56:37;24.60;99.90
2825;DHT22;1420;51.324;12.344;2022-08-01T09:59:04;25.30;99.90
2825;DHT22;1420;51.324;12.344;2022-08-01T10:01:42;24.60;99.90
2825;DHT22;1420;51.324;12.344;2022-08-01T10:04:09;24.60;99.90
2825;DHT22;1420;51.324;12.344;2022-08-01T10:06:36;24.40;99.90
2825;DHT22;1420;51.324;12.344;2022-08-01T10:09:03;24.30;99.90
2825;DHT22;1420;51.324;12.344;2022-08-01T10:11:30;24.30;99.90
2825;DHT22;1420;51.324;12.344;2022-08-01T10:13:57;24.00;99.90
2825;DHT22;1420;51.324;12.344;2022-08-01T10:16:25;24.00;99.90
2825;DHT22;1420;51.324;12.344;2022-08-01T10:18:52;24.20;99.90
2825;DHT22;1420;51.324;12.344;2022-08-01T10:21:19;24.40;99.90
2825;DHT22;1420;51.324;12.344;2022-08-01T10:23:46;25.20;99.90
2825;DHT22;1420;51.324;12.344;2022-08-01T10:26:13;25.70;99.90
2825;DHT22;1420;51.324;12.344;2022-08-01T10:28:40;26.60;99.90
2825;DHT22;1420;51.324;12.344;2022-08-01T10:31:08;26.60;99.90
2825;DHT22;1420;51.324;12.344;2022-08-01T10:33:35;26.10;99.90
2825;DHT22;1420;51.324;12.344;2022-08-01T10:36:02;25.80;99.90
2825;DHT22;1420;51.324;12.344;2022-08-01T10:38:30;25.80;99.90
2825;DHT22;1420;51.324;12.344;2022-08-01T10:40:58;25.80;99.90
2825;DHT22;1420;51.324;12.344;2022-08-01T10:43:25;25.70;99.90
2825;DHT22;1420;51.324;12.344;2022-08-01T10:45:52;25.80;99.90
2825;DHT22;1420;51.324;12.344;2022-08-01T10:48:27;26.80;99.90
2825;DHT22;1420;51.324;12.344;2022-08-01T10:50:52;27.40;99.90
2825;DHT22;1420;51.324;12.344;2022-08-01T10:53:21;26.90;99.90
2825;DHT22;1420;51.324;12.344;2022-08-01T10:55:52;26.30;99.90
2825;DHT22;1420;51.324;12.344;2022-08-01T10:58:21;26.20;99.90
2825;DHT22;1420;51.324;12.344;2022-08-01T11:00:47;26.70;99.90
2825;DHT22;1420;51.324;12.344;2022-08-01T11:03:14;26.90;99.90
2825;DHT22;1420;51.324;12.344;2022-08-01T11:05:41;26.50;99.90
2825;DHT22;1420;51.324;12.344;2022-08-01T11:08:10;26.30;99.90
2825;DHT22;1420;51.324;12.344;2022-08-01T11:10:38;26.40;99.90
2825;DHT22;1420;51.324;12.344;2022-08-01T11:13:04;26.00;99.90
2825;DHT22;1420;51.324;12.344;2022-08-01T11:15:31;25.80;99.90
2825;DHT22;1420;51.324;12.344;2022-08-01T11:17:59;25.80;99.90
2825;DHT22;1420;51.324;12.344;2022-08-01T11:20:26;25.50;99.90
2825;DHT22;1420;51.324;12.344;2022-08-01T11:23:15;25.80;99.90
2825;DHT22;1420;51.324;12.344;2022-08-01T11:26:07;26.20;99.90
2825;DHT22;1420;51.324;12.344;2022-08-01T11:28:35;26.20;99.90
2825;DHT22;1420;51.324;12.344;2022-08-01T11:31:27;26.20;99.90
2825;DHT22;1420;51.324;12.344;2022-08-01T11:33:55;26.30;99.90
2825;DHT22;1420;51.324;12.344;2022-08-01T11:36:22;26.70;99.90
2825;DHT22;1420;51.324;12.344;2022-08-01T11:38:50;27.10;99.90
2825;DHT22;1420;51.324;12.344;2022-08-01T11:41:17;26.70;99.90
2825;DHT22;1420;51.324;12.344;2022-08-01T11:43:55;26.40;99.90
2825;DHT22;1420;51.324;12.344;2022-08-01T11:51:40;26.10;99.90
2825;DHT22;1420;51.324;12.344;2022-08-01T11:54:08;26.40;99.90
2825;DHT22;1420;51.324;12.344;2022-08-01T11:56:35;26.40;99.90
2825;DHT22;1420;51.324;12.344;2022-08-01T11:59:02;26.50;99.90
2825;DHT22;1420;51.324;12.344;2022-08-01T12:01:29;26.60;99.90
2825;DHT22;1420;51.324;12.344;2022-08-01T12:03:56;26.30;99.90
2825;DHT22;1420;51.324;12.344;2022-08-01T12:06:28;25.90;99.90
2825;DHT22;1420;51.324;12.344;2022-08-01T12:08:55;25.40;99.90
2825;DHT22;1420;51.324;12.344;2022-08-01T12:11:22;25.30;99.90
2825;DHT22;1420;51.324;12.344;2022-08-01T12:13:49;24.80;99.90
2825;DHT22;1420;51.324;12.344;2022-08-01T12:16:16;24.90;99.90
2825;DHT22;1420;51.324;12.344;2022-08-01T12:18:44;24.90;99.90
2825;DHT22;1420;51.324;12.344;2022-08-01T12:21:11;24.70;99.90
2825;DHT22;1420;51.324;12.344;2022-08-01T12:23:38;24.90;99.90
2825;DHT22;1420;51.324;12.344;2022-08-01T12:26:05;25.20;99.90
2825;DHT22;1420;51.324;12.344;2022-08-01T12:28:38;25.30;99.90
2825;DHT22;1420;51.324;12.344;2022-08-01T12:31:01;25.30;99.90
2825;DHT22;1420;51.324;12.344;2022-08-01T12:33:28;25.20;99.90
2825;DHT22;1420;51.324;12.344;2022-08-01T12:35:55;24.90;99.90
2825;DHT22;1420;51.324;12.344;2022-08-01T12:38:23;25.10;99.90
2825;DHT22;1420;51.324;12.344;2022-08-01T12:40:50;25.30;99.90
2825;DHT22;1420;51.324;12.344;2022-08-01T12:43:18;25.10;99.90
2825;DHT22;1420;51.324;12.344;2022-08-01T12:45:45;25.30;99.90
2825;DHT22;1420;51.324;12.344;2022-08-01T12:48:14;25.40;99.90
2825;DHT22;1420;51.324;12.344;2022-08-01T12:50:39;25.30;99.90
2825;DHT22;1420;51.324;12.344;2022-08-01T12:53:07;25.30;99.90
2825;DHT22;1420;51.324;12.344;2022-08-01T12:55:51;25.00;99.90
2825;DHT22;1420;51.324;12.344;2022-08-01T12:58:17;25.00;99.90
2825;DHT22;1420;51.324;12.344;2022-08-01T13:00:45;25.30;99.90
2825;DHT22;1420;51.324;12.344;2022-08-01T13:03:16;25.30;99.90
2825;DHT22;1420;51.324;12.344;2022-08-01T13:05:47;25.30;99.90
2825;DHT22;1420;51.324;12.344;2022-08-01T13:08:15;25.70;99.90
2825;DHT22;1420;51.324;12.344;2022-08-01T13:10:42;25.80;99.90
2825;DHT22;1420;51.324;12.344;2022-08-01T13:13:10;26.20;99.90
2825;DHT22;1420;51.324;12.344;2022-08-01T13:15:38;26.10;99.90
2825;DHT22;1420;51.324;12.344;2022-08-01T13:18:28;25.90;99.90
2825;DHT22;1420;51.324;12.344;2022-08-01T13:21:06;25.40;99.90
2825;DHT22;1420;51.324;12.344;2022-08-01T13:23:33;25.40;99.90
2825;DHT22;1420;51.324;12.344;2022-08-01T13:26:01;25.60;99.90
2825;DHT22;1420;51.324;12.344;2022-08-01T13:28:29;25.50;99.90
2825;DHT22;1420;51.324;12.344;2022-08-01T13:30:59;25.60;99.90
2825;DHT22;1420;51.324;12.344;2022-08-01T13:33:26;25.30;99.90
2825;DHT22;1420;51.324;12.344;2022-08-01T13:35:54;25.30;99.90
2825;DHT22;1420;51.324;12.344;2022-08-01T13:38:22;25.10;99.90
2825;DHT22;1420;51.324;12.344;2022-08-01T13:40:49;25.00;99.90
2825;DHT22;1420;51.324;12.344;2022-08-01T13:43:16;25.30;99.90
2825;DHT22;1420;51.324;12.344;2022-08-01T13:45:44;25.80;99.90
2825;DHT22;1420;51.324;12.344;2022-08-01T13:48:11;25.70;99.90
2825;DHT22;1420;51.324;12.344;2022-08-01T13:50:38;25.70;99.90
2825;DHT22;1420;51.324;12.344;2022-08-01T13:53:05;25.40;99.90
2825;DHT22;1420;51.324;12.344;2022-08-01T13:55:32;25.40;99.90
2825;DHT22;1420;51.324;12.344;2022-08-01T13:58:00;25.20;99.90
2825;DHT22;1420;51.324;12.344;2022-08-01T14:00:27;25.30;99.90
2825;DHT22;1420;51.324;12.344;2022-08-01T14:02:54;25.30;99.90
2825;DHT22;1420;51.324;12.344;2022-08-01T14:05:21;25.50;99.90
2825;DHT22;1420;51.324;12.344;2022-08-01T14:07:48;25.50;99.90
2825;DHT22;1420;51.324;12.344;2022-08-01T14:10:16;25.50;99.90
2825;DHT22;1420;51.324;12.344;2022-08-01T14:12:43;25.40;99.90
2825;DHT22;1420;51.324;12.344;2022-08-01T14:15:10;25.70;99.90
2825;DHT22;1420;51.324;12.344;2022-08-01T14:17:37;25.90;99.90
2825;DHT22;1420;51.324;12.344;2022-08-01T14:20:05;25.90;99.90
2825;DHT22;1420;51.324;12.344;2022-08-01T14:22:32;26.10;99.90
2825;DHT22;1420;51.324;12.344;2022-08-01T14:24:59;25.90;99.90
2825;DHT22;1420;51.324;12.344;2022-08-01T14:27:26;25.50;99.90
2825;DHT22;1420;51.324;12.344;2022-08-01T14:29:53;25.60;99.90
2825;DHT22;1420;51.324;12.344;2022-08-01T14:32:21;25.50;99.90
2825;DHT22;1420;51.324;12.344;2022-08-01T14:34:48;25.20;99.90
2825;DHT22;1420;51.324;12.344;2022-08-01T14:37:16;25.30;99.90
2825;DHT22;1420;51.324;12.344;2022-08-01T14:39:44;25.30;99.90
2825;DHT22;1420;51.324;12.344;2022-08-01T14:42:12;25.40;99.90
2825;DHT22;1420;51.324;12.344;2022-08-01T14:44:40;25.40;99.90
2825;DHT22;1420;51.324;12.344;2022-08-01T14:49:31;25.50;99.90
2825;DHT22;1420;51.324;12.344;2022-08-01T14:51:58;25.20;99.90
2825;DHT22;1420;51.324;12.344;2022-08-01T14:54:25;25.10;99.90
2825;DHT22;1420;51.324;12.344;2022-08-01T14:56:52;25.00;99.90
2825;DHT22;1420;51.324;12.344;2022-08-01T14:59:20;25.00;99.90
2825;DHT22;1420;51.324;12.344;2022-08-01T15:01:47;25.20;99.90
2825;DHT22;1420;51.324;12.344;2022-08-01T15:04:14;25.20;99.90
2825;DHT22;1420;51.324;12.344;2022-08-01T15:06:41;25.00;99.90
2825;DHT22;1420;51.324;12.344;2022-08-01T15:09:08;25.10;99.90
2825;DHT22;1420;51.324;12.344;2022-08-01T15:11:36;25.00;99.90
2825;DHT22;1420;51.324;12.344;2022-08-01T15:14:03;25.10;99.90
2825;DHT22;1420;51.324;12.344;2022-08-01T15:16:36;25.10;99.90
2825;DHT22;1420;51.324;12.344;2022-08-01T15:19:04;25.50;99.90
2825;DHT22;1420;51.324;12.344;2022-08-01T15:21:32;25.60;99.90
2825;DHT22;1420;51.324;12.344;2022-08-01T15:24:00;25.50;99.90
2825;DHT22;1420;51.324;12.344;2022-08-01T15:26:28;25.50;99.90
2825;DHT22;1420;51.324;12.344;2022-08-01T15:28:55;25.40;99.90
2825;DHT22;1420;51.324;12.344;2022-08-01T15:31:23;25.10;99.90
2825;DHT22;1420;51.324;12.344;2022-08-01T15:33:51;25.00;99.90
2825;DHT22;1420;51.324;12.344;2022-08-01T15:36:19;24.90;99.90
2825;DHT22;1420;51.324;12.344;2022-08-01T15:38:47;25.10;99.90
2825;DHT22;1420;51.324;12.344;2022-08-01T15:41:15;25.20;99.90
2825;DHT22;1420;51.324;12.344;2022-08-01T15:43:43;25.40;99.90
2825;DHT22;1420;51.324;12.344;2022-08-01T15:46:11;25.10;99.90
2825;DHT22;1420;51.324;12.344;2022-08-01T15:48:39;25.10;99.90
2825;DHT22;1420;51.324;12.344;2022-08-01T15:51:07;25.00;99.90
2825;DHT22;1420;51.324;12.344;2022-08-01T15:53:35;25.10;99.90
2825;DHT22;1420;51.324;12.344;2022-08-01T15:56:03;25.10;99.90
2825;DHT22;1420;51.324;12.344;2022-08-01T15:58:30;25.10;99.90
2825;DHT22;1420;51.324;12.344;2022-08-01T16:00:58;25.00;99.90